createdAt,value
2019-01-05T00:10:04.659Z,4
2019-01-05T00:20:10.242Z,4
2019-01-05T00:30:19.382Z,5
2019-01-05T00:40:25.514Z,5
2019-01-05T00:50:31.684Z,5
2019-01-05T01:00:36.961Z,4
2019-01-05T01:10:45.534Z,6
2019-01-05T01:20:54.726Z,4
2019-01-05T01:31:01.782Z,6
2019-01-05T01:41:09.375Z,5
2019-01-05T01:51:16.675Z,5
2019-01-05T02:01:20.523Z,6
2019-01-05T02:11:27.795Z,6
2019-01-05T02:21:35.117Z,5
2019-01-05T02:31:44.412Z,5
2019-01-05T02:41:51.518Z,6
2019-01-05T02:52:01.631Z,4
2019-01-05T03:02:07.936Z,6
2019-01-05T03:12:15.932Z,4
2019-01-05T03:15:31.031Z,7
2019-01-05T03:25:40.296Z,6
2019-01-05T03:35:48.614Z,6
2019-01-05T03:45:55.620Z,7
2019-01-05T03:56:01.374Z,5
2019-01-05T04:06:09.378Z,6
2019-01-05T04:16:15.582Z,7
2019-01-05T04:26:23.870Z,7
2019-01-05T04:36:31.762Z,8
2019-01-05T04:46:40.038Z,6
2019-01-05T04:56:48.143Z,9
2019-01-05T05:06:55.829Z,8
2019-01-05T05:17:03.853Z,8
2019-01-05T05:27:10.444Z,8
2019-01-05T05:37:17.429Z,8
2019-01-05T05:47:24.888Z,7
2019-01-05T05:57:31.508Z,7
2019-01-05T06:07:39.182Z,7
2019-01-05T06:17:46.247Z,8
2019-01-05T06:27:57.351Z,10
2019-01-05T06:38:03.118Z,15
2019-01-05T06:48:11.274Z,10
2019-01-05T06:58:18.993Z,8
2019-01-05T07:08:26.761Z,9
2019-01-05T07:18:35.257Z,8
2019-01-05T07:28:42.914Z,10
2019-01-05T07:38:49.166Z,9
2019-01-05T07:48:56.995Z,12
2019-01-05T07:59:03.689Z,11
2019-01-05T08:09:09.890Z,5
2019-01-05T08:19:17.121Z,7
2019-01-05T08:29:24.941Z,7
2019-01-05T08:39:33.650Z,6
2019-01-05T08:49:40.885Z,5
2019-01-05T08:59:52.116Z,4
2019-01-05T09:10:01.878Z,7
2019-01-05T09:20:09.171Z,5
2019-01-05T09:30:19.024Z,6
2019-01-05T09:40:28.355Z,5
2019-01-05T09:50:37.195Z,5
2019-01-05T10:00:44.875Z,4
2019-01-05T10:10:52.413Z,11
2019-01-05T10:14:21.406Z,5
2019-01-05T10:24:26.579Z,4
2019-01-05T10:34:33.932Z,2
2019-01-05T10:38:08.033Z,6
2019-01-05T10:40:06.310Z,3
2019-01-05T10:50:13.917Z,5
2019-01-05T11:00:22.387Z,6
2019-01-05T11:06:42.966Z,6
2019-01-05T11:16:45.592Z,4
2019-01-05T11:26:52.452Z,5
2019-01-05T11:37:00.658Z,3
2019-01-05T11:47:08.224Z,4
2019-01-05T11:57:18.659Z,4
2019-01-05T11:58:30.433Z,5
2019-01-05T12:04:53.384Z,5
2019-01-05T12:14:55.384Z,3
2019-01-05T12:25:02.068Z,4
2019-01-05T12:35:28.620Z,4
2019-01-05T12:45:28.264Z,4
2019-01-05T12:55:35.577Z,4
2019-01-05T13:06:02.483Z,5
2019-01-05T13:16:05.695Z,3
2019-01-05T13:26:28.189Z,3
2019-01-05T13:27:41.780Z,3
2019-01-05T13:34:56.667Z,4
2019-01-05T13:38:30.329Z,6
2019-01-05T13:39:38.920Z,5
2019-01-05T13:49:46.392Z,7
2019-01-05T13:51:23.726Z,7
2019-01-05T14:01:28.724Z,5
2019-01-05T14:11:36.641Z,5
2019-01-05T14:21:45.663Z,5
2019-01-05T14:32:39.151Z,5
2019-01-05T14:37:06.769Z,4
2019-01-05T14:47:10.454Z,4
2019-01-05T14:57:17.900Z,4
2019-01-05T15:05:46.223Z,7
2019-01-05T15:15:45.720Z,6
2019-01-05T15:26:04.289Z,6
2019-01-05T15:31:43.491Z,5
2019-01-05T15:36:10.748Z,7
2019-01-05T15:46:15.968Z,5
2019-01-05T15:56:24.178Z,7
2019-01-05T16:06:33.442Z,4
2019-01-05T16:16:41.522Z,4
2019-01-05T16:26:49.064Z,4
2019-01-05T16:36:57.902Z,3
2019-01-05T16:47:05.003Z,4
2019-01-05T16:57:04.205Z,4
2019-01-05T17:07:08.584Z,5
2019-01-05T17:17:17.715Z,4
2019-01-05T17:27:25.707Z,3
2019-01-05T17:37:34.628Z,2
2019-01-05T17:47:42.107Z,3
2019-01-05T17:57:50.467Z,3
2019-01-05T18:07:57.451Z,3
2019-01-05T18:18:06.480Z,4
2019-01-05T18:28:14.675Z,4
2019-01-05T18:38:21.429Z,5
2019-01-05T18:48:30.487Z,4
2019-01-05T18:58:37.405Z,3
2019-01-05T19:08:47.367Z,3
2019-01-05T19:18:54.733Z,3
2019-01-05T19:29:01.508Z,3
2019-01-05T19:39:09.479Z,3
2019-01-05T19:49:16.513Z,3
2019-01-05T19:59:22.855Z,5
2019-01-05T20:09:28.222Z,4
2019-01-05T20:19:35.829Z,3
2019-01-05T20:29:42.603Z,4
2019-01-05T20:39:50.319Z,4
2019-01-05T20:49:58.184Z,2
2019-01-05T21:00:06.106Z,3
2019-01-05T21:10:13.515Z,4
2019-01-05T21:20:21.499Z,4
2019-01-05T21:30:28.742Z,4
2019-01-05T21:40:37.128Z,4
2019-01-05T21:50:46.782Z,4
2019-01-05T22:00:54.030Z,2
2019-01-05T22:10:59.706Z,2
2019-01-05T22:21:05.101Z,7
2019-01-05T22:31:12.758Z,3
2019-01-05T22:41:20.453Z,2
2019-01-05T22:51:25.661Z,4
2019-01-05T23:01:34.213Z,3
2019-01-05T23:11:43.219Z,5
2019-01-05T23:21:49.657Z,3
2019-01-05T23:31:58.061Z,2
2019-01-05T23:42:05.155Z,4
2019-01-05T23:52:13.750Z,3
